Time;durP1;ratioP1;P1;durP2;ratioP2;P2;SDS_P1;SDS_P2;PMS_P1;PMS_P2;Temp;Humidity;BMP_temperature;BMP_pressure;BME280_temperature;BME280_humidity;BME280_pressure;Samples;Min_cycle;Max_cycle;Signal;HPM_P1;HPM_P2
2022/07/13 00:00:15;;;;;;;1.60;1.50;;;;;;;;;;5003946;28;20735;-71
2022/07/13 00:02:41;;;;;;;2.07;1.57;;;;;;;;;;5010982;28;20198;-71
2022/07/13 00:05:07;;;;;;;1.70;1.50;;;;;;;;;;4994866;28;20213;-71
2022/07/13 00:07:34;;;;;;;4.17;1.67;;;;;;;;;;5009014;28;20643;-71
2022/07/13 00:10:00;;;;;;;1.60;1.50;;;;;;;;;;4972918;28;20278;-71
2022/07/13 00:12:26;;;;;;;1.77;1.67;;;;;;;;;;5010812;28;20283;-71
2022/07/13 00:14:52;;;;;;;2.50;1.67;;;;;;;;;;5007667;28;20179;-72
2022/07/13 00:17:19;;;;;;;3.30;1.67;;;;;;;;;;5011869;28;20219;-71
2022/07/13 00:19:45;;;;;;;2.43;1.70;;;;;;;;;;5003566;28;20191;-71
2022/07/13 00:22:11;;;;;;;2.93;1.50;;;;;;;;;;5009418;28;20183;-71
2022/07/13 00:24:37;;;;;;;4.07;2.00;;;;;;;;;;5006827;28;20875;-71
2022/07/13 00:27:03;;;;;;;2.43;1.77;;;;;;;;;;5008196;28;20214;-72
2022/07/13 00:29:29;;;;;;;2.23;1.90;;;;;;;;;;5014119;28;20214;-71
2022/07/13 00:31:56;;;;;;;2.20;1.60;;;;;;;;;;5014382;28;20191;-71
2022/07/13 00:34:22;;;;;;;3.07;1.80;;;;;;;;;;5009534;28;20222;-71
2022/07/13 00:36:48;;;;;;;3.73;1.73;;;;;;;;;;5006720;28;20211;-71
2022/07/13 00:39:14;;;;;;;3.37;1.73;;;;;;;;;;5008648;28;20647;-71
2022/07/13 00:41:44;;;;;;;2.20;1.80;;;;;;;;;;4996984;28;20625;-72
2022/07/13 00:44:11;;;;;;;1.97;1.70;;;;;;;;;;4996188;28;20317;-71
2022/07/13 00:46:40;;;;;;;1.90;1.77;;;;;;;;;;5004570;28;20246;-72
2022/07/13 00:49:06;;;;;;;2.37;1.83;;;;;;;;;;4990385;28;20305;-71
2022/07/13 00:51:32;;;;;;;2.80;2.10;;;;;;;;;;4991974;28;20891;-71
2022/07/13 00:53:59;;;;;;;3.73;1.77;;;;;;;;;;5007819;28;20696;-71
2022/07/13 00:56:26;;;;;;;2.60;2.00;;;;;;;;;;4991760;28;20203;-71
2022/07/13 00:58:53;;;;;;;4.43;1.90;;;;;;;;;;5005875;28;20270;-71
2022/07/13 01:01:19;;;;;;;2.17;1.97;;;;;;;;;;4990271;28;20623;-71
2022/07/13 01:03:46;;;;;;;2.63;2.23;;;;;;;;;;5011121;28;20191;-71
2022/07/13 01:06:12;;;;;;;3.17;2.30;;;;;;;;;;5009049;28;20309;-71
2022/07/13 01:08:38;;;;;;;3.20;2.07;;;;;;;;;;5007886;28;20191;-71
2022/07/13 01:11:05;;;;;;;2.00;1.80;;;;;;;;;;4991323;28;20218;-71
2022/07/13 01:13:31;;;;;;;2.93;2.20;;;;;;;;;;4985623;28;20337;-71
2022/07/13 01:15:57;;;;;;;4.90;1.90;;;;;;;;;;5008102;28;20219;-71
2022/07/13 01:18:24;;;;;;;3.20;1.80;;;;;;;;;;5001674;28;20187;-71
2022/07/13 01:20:51;;;;;;;1.80;1.70;;;;;;;;;;4990433;28;20194;-72
2022/07/13 01:23:18;;;;;;;1.80;1.70;;;;;;;;;;4989048;28;20183;-72
2022/07/13 01:25:44;;;;;;;1.90;1.70;;;;;;;;;;5006180;28;20225;-71
2022/07/13 01:28:13;;;;;;;3.27;1.70;;;;;;;;;;5010409;28;20203;-71
2022/07/13 01:30:39;;;;;;;3.73;1.60;;;;;;;;;;5009032;28;20186;-71
2022/07/13 01:33:06;;;;;;;2.40;1.60;;;;;;;;;;5010022;28;20183;-71
2022/07/13 01:35:32;;;;;;;2.60;1.60;;;;;;;;;;4994368;28;20253;-71
2022/07/13 01:38:00;;;;;;;3.30;1.77;;;;;;;;;;5004171;28;20598;-72
2022/07/13 01:40:26;;;;;;;1.70;1.60;;;;;;;;;;5010257;28;22046;-72
2022/07/13 01:42:55;;;;;;;3.07;1.40;;;;;;;;;;5007320;28;20187;-71
2022/07/13 01:45:22;;;;;;;1.70;1.60;;;;;;;;;;5008541;28;20249;-71
2022/07/13 01:47:52;;;;;;;1.80;1.50;;;;;;;;;;5007126;28;20325;-71
2022/07/13 01:50:20;;;;;;;2.87;1.70;;;;;;;;;;5002158;28;20275;-71
2022/07/13 01:52:47;;;;;;;2.43;1.50;;;;;;;;;;4993616;28;20197;-71
2022/07/13 01:55:13;;;;;;;2.60;1.50;;;;;;;;;;5003724;28;20187;-71
2022/07/13 01:57:42;;;;;;;4.63;2.00;;;;;;;;;;5008222;28;20179;-71
2022/07/13 02:00:08;;;;;;;1.70;1.60;;;;;;;;;;4993327;28;20274;-71
2022/07/13 02:02:40;;;;;;;2.30;1.70;;;;;;;;;;5009021;28;20183;-71
2022/07/13 02:05:10;;;;;;;2.10;1.67;;;;;;;;;;5012167;28;20241;-71
2022/07/13 02:07:40;;;;;;;2.50;1.80;;;;;;;;;;4991469;28;20222;-71
2022/07/13 02:10:07;;;;;;;3.10;1.70;;;;;;;;;;4981040;28;20245;-71
2022/07/13 02:12:35;;;;;;;3.70;1.80;;;;;;;;;;4991604;28;20175;-71
2022/07/13 02:15:01;;;;;;;2.27;1.70;;;;;;;;;;4995438;28;20188;-71
2022/07/13 02:17:27;;;;;;;1.90;1.60;;;;;;;;;;4991346;28;20218;-71
2022/07/13 02:19:53;;;;;;;1.97;1.43;;;;;;;;;;4998614;28;20301;-71
2022/07/13 02:22:20;;;;;;;2.10;1.70;;;;;;;;;;5007645;28;20191;-71
2022/07/13 02:24:47;;;;;;;4.93;2.17;;;;;;;;;;5005951;28;20198;-71
2022/07/13 02:27:13;;;;;;;1.80;1.70;;;;;;;;;;4993049;28;20269;-71
2022/07/13 02:29:39;;;;;;;1.80;1.70;;;;;;;;;;4989874;28;20219;-71
2022/07/13 02:32:06;;;;;;;3.20;2.00;;;;;;;;;;4990211;28;20619;-71
2022/07/13 02:34:32;;;;;;;4.03;1.97;;;;;;;;;;4988196;28;20197;-71
2022/07/13 02:36:58;;;;;;;3.00;2.10;;;;;;;;;;5004529;28;20199;-71
2022/07/13 02:39:25;;;;;;;3.63;2.00;;;;;;;;;;5002899;28;20523;-71
2022/07/13 02:41:51;;;;;;;2.10;1.90;;;;;;;;;;4989520;28;20191;-71
2022/07/13 02:44:18;;;;;;;4.57;1.90;;;;;;;;;;4988409;28;20723;-71
2022/07/13 02:46:44;;;;;;;2.60;2.10;;;;;;;;;;5001964;28;20541;-71
2022/07/13 02:49:10;;;;;;;2.10;1.80;;;;;;;;;;4993415;28;20207;-71
2022/07/13 02:51:37;;;;;;;3.00;2.17;;;;;;;;;;4987544;28;20183;-71
2022/07/13 02:54:04;;;;;;;3.50;2.50;;;;;;;;;;4989001;28;20225;-70
2022/07/13 02:56:32;;;;;;;2.43;2.23;;;;;;;;;;4979788;28;20200;-72
2022/07/13 02:58:58;;;;;;;3.93;2.30;;;;;;;;;;4991486;28;20265;-71
2022/07/13 03:01:24;;;;;;;2.20;2.00;;;;;;;;;;4999484;28;20186;-71
2022/07/13 03:03:51;;;;;;;2.87;2.43;;;;;;;;;;4972929;28;20230;-71
2022/07/13 03:06:17;;;;;;;2.77;2.00;;;;;;;;;;4992775;28;20260;-71
2022/07/13 03:08:44;;;;;;;2.43;2.10;;;;;;;;;;5006672;28;20306;-70
2022/07/13 03:11:10;;;;;;;2.60;1.90;;;;;;;;;;5010262;28;20179;-72
2022/07/13 03:13:37;;;;;;;2.53;2.00;;;;;;;;;;4988957;28;20559;-72
2022/07/13 03:16:03;;;;;;;2.60;2.13;;;;;;;;;;5010178;28;20236;-71
2022/07/13 03:18:29;;;;;;;4.80;2.30;;;;;;;;;;4991414;28;20261;-71
2022/07/13 03:20:56;;;;;;;2.30;2.10;;;;;;;;;;4993908;28;20191;-72
2022/07/13 03:23:22;;;;;;;2.90;2.33;;;;;;;;;;5007463;28;20213;-71
2022/07/13 03:25:48;;;;;;;3.07;2.20;;;;;;;;;;4994147;28;20821;-71
2022/07/13 03:28:15;;;;;;;3.07;2.53;;;;;;;;;;4995065;28;20222;-71
2022/07/13 03:30:42;;;;;;;4.00;2.20;;;;;;;;;;4993327;28;20244;-71
2022/07/13 03:33:08;;;;;;;2.60;2.17;;;;;;;;;;4977427;28;20297;-71
2022/07/13 03:35:34;;;;;;;2.67;2.30;;;;;;;;;;4993456;28;20549;-71
2022/07/13 03:38:02;;;;;;;2.80;2.27;;;;;;;;;;4993775;28;20187;-71
2022/07/13 03:40:30;;;;;;;2.53;2.10;;;;;;;;;;5006902;28;20210;-71
2022/07/13 03:42:57;;;;;;;2.97;2.37;;;;;;;;;;5011170;28;20317;-71
2022/07/13 03:45:24;;;;;;;3.10;2.17;;;;;;;;;;5010912;28;20221;-71
2022/07/13 03:47:50;;;;;;;2.73;2.10;;;;;;;;;;4994240;28;20245;-71
2022/07/13 03:50:17;;;;;;;3.30;2.30;;;;;;;;;;4992053;28;20300;-71
2022/07/13 03:52:45;;;;;;;1.90;1.80;;;;;;;;;;4990726;28;20257;-71
2022/07/13 03:55:12;;;;;;;3.00;2.03;;;;;;;;;;4989394;28;20207;-71
2022/07/13 03:57:39;;;;;;;2.33;2.00;;;;;;;;;;4991957;28;21956;-71
2022/07/13 04:00:06;;;;;;;3.00;1.63;;;;;;;;;;4973356;28;20313;-71
2022/07/13 04:02:41;;;;;;;2.60;2.00;;;;;;;;;;4977194;28;20184;-71
2022/07/13 04:05:12;;;;;;;4.30;2.20;;;;;;;;;;4990281;28;20187;-71
2022/07/13 04:07:39;;;;;;;2.20;2.00;;;;;;;;;;4994262;28;21703;-71
2022/07/13 04:10:05;;;;;;;3.93;2.00;;;;;;;;;;4976893;28;20612;-71
2022/07/13 04:12:31;;;;;;;3.03;2.10;;;;;;;;;;4992343;28;20187;-71
2022/07/13 04:14:58;;;;;;;2.37;1.90;;;;;;;;;;4986898;28;20561;-71
2022/07/13 04:17:24;;;;;;;2.10;1.90;;;;;;;;;;4991626;28;20200;-71
2022/07/13 04:19:51;;;;;;;3.50;2.27;;;;;;;;;;4994070;28;20196;-72
2022/07/13 04:22:17;;;;;;;2.53;2.00;;;;;;;;;;4986731;28;20191;-72
2022/07/13 04:24:43;;;;;;;3.03;2.10;;;;;;;;;;4992901;28;20188;-71
2022/07/13 04:27:10;;;;;;;2.30;2.03;;;;;;;;;;4991050;28;20347;-71
2022/07/13 04:29:37;;;;;;;3.70;2.00;;;;;;;;;;5002052;28;20207;-71
2022/07/13 04:32:05;;;;;;;2.17;1.87;;;;;;;;;;5006937;28;20183;-72
2022/07/13 04:34:32;;;;;;;2.07;1.80;;;;;;;;;;4994261;28;20187;-72
2022/07/13 04:36:58;;;;;;;1.97;1.77;;;;;;;;;;4979789;28;20235;-72
2022/07/13 04:39:25;;;;;;;4.03;2.10;;;;;;;;;;4991626;28;20195;-72
2022/07/13 04:41:52;;;;;;;2.07;1.87;;;;;;;;;;4991537;28;20214;-72
2022/07/13 04:44:19;;;;;;;2.67;2.03;;;;;;;;;;4979202;28;20175;-72
2022/07/13 04:46:46;;;;;;;2.10;1.90;;;;;;;;;;4997117;28;20218;-72
2022/07/13 04:49:13;;;;;;;3.87;1.90;;;;;;;;;;4992357;28;20208;-72
2022/07/13 04:51:40;;;;;;;2.37;1.70;;;;;;;;;;4989033;28;20191;-71
2022/07/13 04:54:09;;;;;;;3.80;1.90;;;;;;;;;;4986878;28;20183;-72
2022/07/13 04:56:36;;;;;;;3.27;1.97;;;;;;;;;;4990238;28;20213;-71
2022/07/13 04:59:02;;;;;;;3.50;1.80;;;;;;;;;;4978284;28;20191;-71
2022/07/13 05:01:28;;;;;;;4.27;2.10;;;;;;;;;;5001620;28;20184;-72
2022/07/13 05:03:59;;;;;;;2.33;1.80;;;;;;;;;;4988732;28;20245;-71
2022/07/13 05:06:27;;;;;;;2.27;1.80;;;;;;;;;;5005535;28;20210;-71
2022/07/13 05:08:53;;;;;;;2.63;1.80;;;;;;;;;;4976372;28;20219;-71
2022/07/13 05:11:19;;;;;;;1.80;1.60;;;;;;;;;;5006248;28;20773;-71
2022/07/13 05:13:46;;;;;;;1.90;1.70;;;;;;;;;;4992039;28;20195;-71
2022/07/13 05:16:13;;;;;;;4.23;1.97;;;;;;;;;;4995081;28;20230;-71
2022/07/13 05:18:41;;;;;;;4.27;2.10;;;;;;;;;;4988230;28;20302;-71
2022/07/13 05:21:12;;;;;;;3.37;1.70;;;;;;;;;;4990954;28;20201;-71
2022/07/13 05:23:39;;;;;;;3.13;2.03;;;;;;;;;;4989215;28;20560;-72
2022/07/13 05:26:07;;;;;;;2.87;2.57;;;;;;;;;;5007501;28;20217;-72
2022/07/13 05:28:34;;;;;;;3.50;2.00;;;;;;;;;;4958889;28;20306;-72
2022/07/13 05:31:01;;;;;;;1.90;1.80;;;;;;;;;;5007421;28;20187;-72
2022/07/13 05:33:29;;;;;;;4.47;2.00;;;;;;;;;;5004452;28;20193;-72
2022/07/13 05:35:56;;;;;;;3.43;2.10;;;;;;;;;;4995198;28;20234;-72
2022/07/13 05:38:23;;;;;;;3.07;2.13;;;;;;;;;;4991341;28;20191;-73
2022/07/13 05:40:51;;;;;;;2.97;2.23;;;;;;;;;;5003326;28;20410;-71
2022/07/13 05:43:18;;;;;;;3.00;2.10;;;;;;;;;;5004908;28;20242;-72
2022/07/13 05:45:44;;;;;;;4.80;2.33;;;;;;;;;;4991741;28;20199;-72
2022/07/13 05:48:10;;;;;;;3.07;1.90;;;;;;;;;;4971201;28;20213;-71
2022/07/13 05:50:36;;;;;;;5.43;2.20;;;;;;;;;;4991631;28;20658;-72
2022/07/13 05:53:02;;;;;;;3.20;2.10;;;;;;;;;;4993862;28;20557;-73
2022/07/13 05:55:30;;;;;;;5.50;2.10;;;;;;;;;;4989396;28;20290;-75
2022/07/13 05:57:56;;;;;;;2.87;2.00;;;;;;;;;;5005768;28;20190;-73
2022/07/13 06:00:22;;;;;;;4.23;2.10;;;;;;;;;;4999664;28;20694;-73
2022/07/13 06:02:48;;;;;;;2.43;1.93;;;;;;;;;;4999500;28;20642;-73
2022/07/13 06:05:15;;;;;;;2.00;1.80;;;;;;;;;;4992057;28;20188;-73
2022/07/13 06:07:41;;;;;;;2.83;1.80;;;;;;;;;;5003098;28;20206;-73
2022/07/13 06:10:08;;;;;;;2.93;1.90;;;;;;;;;;5004450;28;20187;-74
2022/07/13 06:12:34;;;;;;;3.17;1.70;;;;;;;;;;5002807;28;20656;-73
2022/07/13 06:15:00;;;;;;;3.20;2.00;;;;;;;;;;5006577;28;20646;-74
2022/07/13 06:17:26;;;;;;;1.80;1.70;;;;;;;;;;4997977;28;20745;-72
2022/07/13 06:19:52;;;;;;;2.50;1.83;;;;;;;;;;5001355;28;20192;-73
2022/07/13 06:22:19;;;;;;;2.10;1.90;;;;;;;;;;5006223;28;20242;-73
2022/07/13 06:24:45;;;;;;;4.70;1.90;;;;;;;;;;5000193;28;20180;-74
2022/07/13 06:27:11;;;;;;;3.33;1.77;;;;;;;;;;5005692;28;20203;-72
2022/07/13 06:29:37;;;;;;;3.43;1.70;;;;;;;;;;5002953;28;20297;-72
2022/07/13 06:32:03;;;;;;;2.33;1.70;;;;;;;;;;5004109;28;20190;-72
2022/07/13 06:34:29;;;;;;;3.93;2.30;;;;;;;;;;5007749;28;20183;-72
2022/07/13 06:36:56;;;;;;;4.83;2.13;;;;;;;;;;5001360;28;20211;-72
2022/07/13 06:39:22;;;;;;;3.90;1.77;;;;;;;;;;5002714;28;20179;-72
2022/07/13 06:41:48;;;;;;;2.97;1.97;;;;;;;;;;4995457;28;20183;-72
2022/07/13 06:44:14;;;;;;;2.63;1.70;;;;;;;;;;4998909;28;20191;-72
2022/07/13 06:46:40;;;;;;;3.60;1.80;;;;;;;;;;5004554;28;20206;-72
2022/07/13 06:49:07;;;;;;;2.03;1.77;;;;;;;;;;5002561;28;20618;-72
2022/07/13 06:51:34;;;;;;;4.70;2.00;;;;;;;;;;5001538;28;22004;-72
2022/07/13 06:54:00;;;;;;;2.57;1.90;;;;;;;;;;4998295;28;20607;-73
2022/07/13 06:56:26;;;;;;;1.87;1.70;;;;;;;;;;4998444;28;20293;-73
2022/07/13 06:58:52;;;;;;;2.40;1.73;;;;;;;;;;4999726;28;20195;-75
2022/07/13 07:01:19;;;;;;;2.43;1.80;;;;;;;;;;5000906;28;20187;-73
2022/07/13 07:03:45;;;;;;;2.53;1.73;;;;;;;;;;4992629;28;20183;-72
2022/07/13 07:06:11;;;;;;;3.03;1.60;;;;;;;;;;5004663;28;20202;-73
2022/07/13 07:08:37;;;;;;;2.70;1.67;;;;;;;;;;5001876;28;20215;-72
2022/07/13 07:11:04;;;;;;;4.00;1.83;;;;;;;;;;5001994;28;20202;-72
2022/07/13 07:13:30;;;;;;;3.93;1.70;;;;;;;;;;5007635;28;20704;-72
2022/07/13 07:15:56;;;;;;;3.40;1.77;;;;;;;;;;5005302;28;20306;-72
2022/07/13 07:18:22;;;;;;;2.70;1.70;;;;;;;;;;4990169;28;20184;-72
2022/07/13 07:20:49;;;;;;;2.60;1.60;;;;;;;;;;5001030;28;20187;-72
2022/07/13 07:23:15;;;;;;;6.10;1.77;;;;;;;;;;4985194;28;20184;-72
2022/07/13 07:25:42;;;;;;;5.50;1.90;;;;;;;;;;4998218;28;20207;-72
2022/07/13 07:28:12;;;;;;;2.03;1.63;;;;;;;;;;4969993;28;20206;-74
2022/07/13 07:30:39;;;;;;;2.23;1.63;;;;;;;;;;4995925;28;21171;-73
2022/07/13 07:33:05;;;;;;;1.77;1.50;;;;;;;;;;4988036;28;20196;-73
2022/07/13 07:35:32;;;;;;;4.93;1.63;;;;;;;;;;4987303;28;20216;-73
2022/07/13 07:37:58;;;;;;;3.10;1.80;;;;;;;;;;4970358;28;20217;-73
2022/07/13 07:40:24;;;;;;;3.30;1.60;;;;;;;;;;4999418;28;20246;-73
2022/07/13 07:42:50;;;;;;;2.80;1.57;;;;;;;;;;5002176;28;20227;-73
2022/07/13 07:45:17;;;;;;;2.23;1.47;;;;;;;;;;4997043;28;20183;-73
2022/07/13 07:47:43;;;;;;;2.87;1.63;;;;;;;;;;5000175;28;20180;-73
2022/07/13 07:50:09;;;;;;;2.00;1.40;;;;;;;;;;5003010;28;20214;-73
2022/07/13 07:52:35;;;;;;;2.23;1.50;;;;;;;;;;4999346;28;20197;-73
2022/07/13 07:55:02;;;;;;;1.73;1.50;;;;;;;;;;4999972;28;20568;-73
2022/07/13 07:57:28;;;;;;;2.20;1.60;;;;;;;;;;4968764;28;20211;-72
2022/07/13 07:59:54;;;;;;;4.20;1.60;;;;;;;;;;4998024;28;20747;-72
2022/07/13 08:02:20;;;;;;;2.70;1.50;;;;;;;;;;5002335;28;20183;-72
2022/07/13 08:04:47;;;;;;;3.00;1.53;;;;;;;;;;5004817;28;20219;-72
2022/07/13 08:07:13;;;;;;;4.77;1.87;;;;;;;;;;4973490;28;20210;-73
2022/07/13 08:09:39;;;;;;;3.67;1.53;;;;;;;;;;4998545;28;20301;-73
2022/07/13 08:12:05;;;;;;;1.87;1.47;;;;;;;;;;4989320;28;20318;-73
2022/07/13 08:14:31;;;;;;;1.77;1.30;;;;;;;;;;4992950;28;20188;-73
2022/07/13 08:16:58;;;;;;;3.57;1.67;;;;;;;;;;5002268;28;20231;-73
2022/07/13 08:19:24;;;;;;;3.40;1.50;;;;;;;;;;4977205;28;20179;-73
2022/07/13 08:21:51;;;;;;;3.87;1.50;;;;;;;;;;4999397;28;20234;-72
2022/07/13 08:24:17;;;;;;;4.57;1.60;;;;;;;;;;4988497;28;20316;-72
2022/07/13 08:26:44;;;;;;;3.50;1.43;;;;;;;;;;4987616;28;20205;-72
2022/07/13 08:29:13;;;;;;;1.67;1.57;;;;;;;;;;4997204;28;20327;-72
2022/07/13 08:31:39;;;;;;;2.13;1.43;;;;;;;;;;4997420;28;20845;-72
2022/07/13 08:39:35;;;;;;;1.20;1.10;;;;;;;;;;5000326;28;20260;-72
2022/07/13 08:42:03;;;;;;;1.60;1.03;;;;;;;;;;5000436;28;20214;-72
2022/07/13 08:44:29;;;;;;;2.37;1.20;;;;;;;;;;4999432;28;20191;-72
2022/07/13 08:46:56;;;;;;;3.23;1.20;;;;;;;;;;4984070;28;20207;-72
2022/07/13 08:49:23;;;;;;;1.33;1.23;;;;;;;;;;4979244;28;20219;-72
2022/07/13 08:51:50;;;;;;;1.90;1.27;;;;;;;;;;4999706;28;20190;-72
2022/07/13 08:54:16;;;;;;;2.13;1.13;;;;;;;;;;4991747;28;20178;-72
2022/07/13 08:56:42;;;;;;;2.27;1.20;;;;;;;;;;4985176;28;20215;-72
2022/07/13 08:59:09;;;;;;;1.20;1.10;;;;;;;;;;4967440;28;20187;-72
2022/07/13 09:01:35;;;;;;;2.33;1.30;;;;;;;;;;5001969;28;20181;-72
2022/07/13 09:04:01;;;;;;;4.03;1.43;;;;;;;;;;4995286;28;20247;-72
2022/07/13 09:06:39;;;;;;;1.77;1.30;;;;;;;;;;4999226;28;20241;-72
2022/07/13 09:09:06;;;;;;;5.17;1.63;;;;;;;;;;4985231;28;21502;-72
2022/07/13 09:11:33;;;;;;;3.30;1.47;;;;;;;;;;4994002;28;20327;-72
2022/07/13 09:13:59;;;;;;;8.13;1.63;;;;;;;;;;4987469;28;20666;-72
2022/07/13 09:16:28;;;;;;;4.10;1.40;;;;;;;;;;4996170;28;20229;-72
2022/07/13 09:18:59;;;;;;;2.40;1.50;;;;;;;;;;4987026;28;20190;-72
2022/07/13 09:21:26;;;;;;;3.80;1.33;;;;;;;;;;4998776;28;20198;-72
2022/07/13 09:24:01;;;;;;;4.00;1.53;;;;;;;;;;4998198;28;20241;-72
2022/07/13 09:26:43;;;;;;;1.50;1.10;;;;;;;;;;4998401;28;20205;-72
2022/07/13 09:29:11;;;;;;;2.00;1.37;;;;;;;;;;4993420;28;20234;-73
2022/07/13 09:31:50;;;;;;;1.93;1.20;;;;;;;;;;4971573;28;20735;-74
2022/07/13 09:34:17;;;;;;;1.60;1.20;;;;;;;;;;4988474;28;20265;-72
2022/07/13 09:36:43;;;;;;;3.80;1.20;;;;;;;;;;5005991;28;20349;-72
2022/07/13 09:39:10;;;;;;;1.43;1.23;;;;;;;;;;4980585;28;20226;-74
2022/07/13 09:41:36;;;;;;;1.83;1.20;;;;;;;;;;4997945;28;20187;-73
2022/07/13 09:46:52;;;;;;;2.73;1.27;;;;;;;;;;5004530;28;20305;-72
2022/07/13 09:49:19;;;;;;;2.77;1.30;;;;;;;;;;5002332;28;20270;-72
2022/07/13 09:51:45;;;;;;;3.23;1.20;;;;;;;;;;5004647;28;20245;-74
2022/07/13 09:54:12;;;;;;;1.73;1.10;;;;;;;;;;5006525;28;20191;-73
2022/07/13 09:56:48;;;;;;;2.70;1.30;;;;;;;;;;4999241;28;20193;-73
2022/07/13 09:59:14;;;;;;;2.07;1.40;;;;;;;;;;5000607;28;20190;-75
2022/07/13 10:01:41;;;;;;;3.60;1.40;;;;;;;;;;4998228;28;20571;-72
2022/07/13 10:04:08;;;;;;;1.50;1.20;;;;;;;;;;4998405;28;20438;-71
2022/07/13 10:06:35;;;;;;;4.27;1.40;;;;;;;;;;4987865;28;20242;-73
2022/07/13 10:09:01;;;;;;;2.33;1.50;;;;;;;;;;4999599;28;20231;-73
2022/07/13 10:11:28;;;;;;;1.97;1.27;;;;;;;;;;4989327;28;20187;-75
2022/07/13 10:13:54;;;;;;;1.70;1.20;;;;;;;;;;5003901;28;20218;-76
2022/07/13 10:16:20;;;;;;;2.43;1.30;;;;;;;;;;5002742;28;20215;-76
2022/07/13 10:18:47;;;;;;;1.30;1.20;;;;;;;;;;4998412;28;20194;-85
2022/07/13 10:21:37;;;;;;;2.50;1.23;;;;;;;;;;4989438;28;20253;-78
2022/07/13 10:24:13;;;;;;;1.70;1.37;;;;;;;;;;4969655;28;20207;-76
2022/07/13 10:26:39;;;;;;;1.80;1.37;;;;;;;;;;4997382;28;20200;-76
2022/07/13 10:29:10;;;;;;;2.10;1.53;;;;;;;;;;4999341;28;20671;-76
2022/07/13 10:31:36;;;;;;;1.97;1.10;;;;;;;;;;4999121;28;20718;-76
2022/07/13 10:34:04;;;;;;;1.93;1.13;;;;;;;;;;4987039;28;20229;-76
2022/07/13 10:36:51;;;;;;;5.20;1.30;;;;;;;;;;5001881;28;20670;-76
2022/07/13 10:39:19;;;;;;;2.80;1.30;;;;;;;;;;4999611;28;20197;-76
2022/07/13 10:41:59;;;;;;;1.93;1.00;;;;;;;;;;4995184;28;20224;-76
2022/07/13 10:44:38;;;;;;;1.63;1.10;;;;;;;;;;4989198;28;20187;-76
2022/07/13 10:47:08;;;;;;;1.20;1.10;;;;;;;;;;4990860;28;20670;-76
2022/07/13 10:49:47;;;;;;;0.97;0.97;;;;;;;;;;4987878;28;20211;-75
2022/07/13 10:52:25;;;;;;;1.20;1.10;;;;;;;;;;5001562;28;20269;-73
2022/07/13 10:55:07;;;;;;;1.23;0.90;;;;;;;;;;5004803;28;20185;-73
2022/07/13 10:57:35;;;;;;;2.67;1.10;;;;;;;;;;4999808;28;20207;-74
2022/07/13 11:00:02;;;;;;;2.00;0.97;;;;;;;;;;5004616;28;20192;-74
2022/07/13 11:02:50;;;;;;;2.50;1.00;;;;;;;;;;5003336;28;20181;-75
2022/07/13 11:05:18;;;;;;;2.30;1.00;;;;;;;;;;5004755;28;20200;-75
2022/07/13 11:07:47;;;;;;;3.13;1.20;;;;;;;;;;5000272;28;20667;-75
2022/07/13 11:10:21;;;;;;;1.60;0.97;;;;;;;;;;5001368;28;20604;-75
2022/07/13 11:13:00;;;;;;;2.40;0.97;;;;;;;;;;5002583;28;20195;-75
2022/07/13 11:15:45;;;;;;;0.97;0.97;;;;;;;;;;4997667;28;20188;-75
2022/07/13 11:18:28;;;;;;;1.63;1.07;;;;;;;;;;4984589;28;20199;-76
2022/07/13 11:20:55;;;;;;;2.50;0.83;;;;;;;;;;4986431;28;20179;-75
2022/07/13 11:26:09;;;;;;;1.67;1.00;;;;;;;;;;4986139;28;20251;-75
2022/07/13 11:28:41;;;;;;;2.07;1.10;;;;;;;;;;4986765;28;20212;-74
2022/07/13 11:31:08;;;;;;;3.27;1.10;;;;;;;;;;4997847;28;20667;-75
2022/07/13 11:33:34;;;;;;;1.27;1.00;;;;;;;;;;4987205;28;20204;-75
2022/07/13 11:36:01;;;;;;;0.70;0.70;;;;;;;;;;4976187;28;20565;-75
2022/07/13 11:38:34;;;;;;;1.27;0.90;;;;;;;;;;5001598;28;20653;-75
2022/07/13 11:41:01;;;;;;;2.03;0.97;;;;;;;;;;4988914;28;20210;-76
2022/07/13 11:43:27;;;;;;;1.27;0.93;;;;;;;;;;5002060;28;20254;-75
2022/07/13 11:45:53;;;;;;;1.00;0.90;;;;;;;;;;5000533;28;20206;-75
2022/07/13 11:48:21;;;;;;;1.83;1.00;;;;;;;;;;5002002;28;20672;-75
2022/07/13 11:50:50;;;;;;;3.43;0.80;;;;;;;;;;5005920;28;20235;-75
2022/07/13 11:53:24;;;;;;;2.13;1.10;;;;;;;;;;5001674;28;20235;-75
2022/07/13 11:55:50;;;;;;;4.97;0.90;;;;;;;;;;5003680;28;20198;-75
2022/07/13 11:58:22;;;;;;;0.90;0.90;;;;;;;;;;5000009;28;20192;-75
2022/07/13 12:00:49;;;;;;;1.43;0.90;;;;;;;;;;4958165;28;20201;-77
2022/07/13 12:03:16;;;;;;;2.43;1.10;;;;;;;;;;5002993;28;20186;-75
2022/07/13 12:05:45;;;;;;;1.17;0.83;;;;;;;;;;5004981;28;20206;-75
2022/07/13 12:08:11;;;;;;;2.77;0.90;;;;;;;;;;4989756;28;20253;-75
2022/07/13 12:10:37;;;;;;;5.60;1.00;;;;;;;;;;5007282;28;20213;-75
2022/07/13 12:13:04;;;;;;;0.80;0.80;;;;;;;;;;5003496;28;20200;-75
2022/07/13 12:15:30;;;;;;;2.20;0.90;;;;;;;;;;4978327;28;20226;-75
2022/07/13 12:17:58;;;;;;;3.10;1.10;;;;;;;;;;5004400;28;20193;-75
2022/07/13 12:20:25;;;;;;;2.40;1.07;;;;;;;;;;4992466;28;20266;-76
2022/07/13 12:22:53;;;;;;;2.80;1.00;;;;;;;;;;4993966;28;20203;-77
2022/07/13 12:25:27;;;;;;;3.10;1.00;;;;;;;;;;5013492;28;20183;-77
2022/07/13 12:27:54;;;;;;;2.37;1.00;;;;;;;;;;4979800;28;20718;-77
2022/07/13 12:30:21;;;;;;;0.80;0.80;;;;;;;;;;5000371;28;20215;-77
2022/07/13 12:33:00;;;;;;;4.30;1.00;;;;;;;;;;4998409;28;20746;-77
2022/07/13 12:35:31;;;;;;;2.40;0.80;;;;;;;;;;4972878;28;20213;-77
2022/07/13 12:37:58;;;;;;;2.00;0.80;;;;;;;;;;4990577;28;20202;-78
2022/07/13 12:40:37;;;;;;;1.90;1.00;;;;;;;;;;4993785;28;20243;-77
2022/07/13 12:43:04;;;;;;;2.30;0.93;;;;;;;;;;5009887;28;20210;-77
2022/07/13 12:45:30;;;;;;;1.63;0.97;;;;;;;;;;4994376;28;20206;-77
2022/07/13 12:47:57;;;;;;;3.13;1.20;;;;;;;;;;5006892;28;20237;-78
2022/07/13 12:50:29;;;;;;;1.73;1.00;;;;;;;;;;4992539;28;20615;-77
2022/07/13 12:53:02;;;;;;;1.70;0.87;;;;;;;;;;5005076;28;20233;-77
2022/07/13 12:55:29;;;;;;;1.47;0.97;;;;;;;;;;5010298;28;20265;-77
2022/07/13 12:57:55;;;;;;;2.30;0.90;;;;;;;;;;5004702;28;20180;-78
2022/07/13 13:00:25;;;;;;;1.87;0.93;;;;;;;;;;5007240;28;20186;-78
2022/07/13 13:02:51;;;;;;;1.33;1.00;;;;;;;;;;5008152;28;20175;-77
2022/07/13 13:05:18;;;;;;;2.40;1.03;;;;;;;;;;5001432;28;20241;-78
2022/07/13 13:07:44;;;;;;;4.37;1.00;;;;;;;;;;5006871;28;20186;-77
2022/07/13 13:10:11;;;;;;;3.00;1.00;;;;;;;;;;4989744;28;20210;-76
2022/07/13 13:12:37;;;;;;;1.23;0.80;;;;;;;;;;4971194;28;20274;-76
2022/07/13 13:15:04;;;;;;;1.77;0.80;;;;;;;;;;5010615;28;20179;-76
2022/07/13 13:17:30;;;;;;;1.10;0.80;;;;;;;;;;4986215;28;20686;-75
2022/07/13 13:19:57;;;;;;;1.38;0.85;;;;;;;;;;5006105;28;20199;-75
2022/07/13 13:22:23;;;;;;;1.88;0.90;;;;;;;;;;5005376;28;20222;-76
2022/07/13 13:24:49;;;;;;;3.65;0.90;;;;;;;;;;4982959;28;20196;-76
2022/07/13 13:27:15;;;;;;;2.25;1.00;;;;;;;;;;4999931;28;20215;-76
2022/07/13 13:32:26;;;;;;;1.00;0.75;;;;;;;;;;5006558;28;20190;-75
2022/07/13 13:34:53;;;;;;;1.73;0.90;;;;;;;;;;5010024;28;20187;-75
2022/07/13 13:37:19;;;;;;;1.95;0.63;;;;;;;;;;5007586;28;20757;-75
2022/07/13 13:39:45;;;;;;;1.17;0.80;;;;;;;;;;5007635;28;20189;-75
2022/07/13 13:42:12;;;;;;;2.30;0.90;;;;;;;;;;5007009;28;20669;-75
2022/07/13 13:44:38;;;;;;;2.40;0.90;;;;;;;;;;5006441;28;20184;-78
2022/07/13 13:47:04;;;;;;;3.23;0.90;;;;;;;;;;5011641;28;20209;-77
2022/07/13 13:49:31;;;;;;;0.90;0.90;;;;;;;;;;4995754;28;20282;-78
2022/07/13 13:51:57;;;;;;;1.40;0.90;;;;;;;;;;4986476;28;20697;-76
2022/07/13 13:54:23;;;;;;;1.10;0.90;;;;;;;;;;5008890;28;20197;-76
2022/07/13 13:56:49;;;;;;;1.30;0.90;;;;;;;;;;5004367;28;20225;-76
2022/07/13 13:59:16;;;;;;;1.10;0.90;;;;;;;;;;5006279;28;20227;-75
2022/07/13 14:01:42;;;;;;;2.50;0.90;;;;;;;;;;4991105;28;20197;-77
2022/07/13 14:04:09;;;;;;;1.03;0.80;;;;;;;;;;5005910;28;20227;-77
2022/07/13 14:06:35;;;;;;;2.13;1.03;;;;;;;;;;4992651;28;20689;-77
2022/07/13 14:09:01;;;;;;;2.40;1.00;;;;;;;;;;5006494;28;20730;-79
2022/07/13 14:11:27;;;;;;;1.65;1.05;;;;;;;;;;5006231;28;20406;-76
2022/07/13 14:13:54;;;;;;;2.47;1.00;;;;;;;;;;5008545;28;20184;-75
2022/07/13 14:16:20;;;;;;;1.40;0.82;;;;;;;;;;4992466;28;20207;-76
2022/07/13 14:18:47;;;;;;;2.33;0.90;;;;;;;;;;5007324;28;20211;-76
2022/07/13 14:21:13;;;;;;;2.25;0.90;;;;;;;;;;5009294;28;20262;-78
2022/07/13 14:23:40;;;;;;;2.15;0.80;;;;;;;;;;4993876;28;20256;-76
2022/07/13 14:26:06;;;;;;;2.97;1.00;;;;;;;;;;5008646;28;20291;-76
2022/07/13 14:28:32;;;;;;;2.28;0.90;;;;;;;;;;4979518;28;20200;-75
2022/07/13 14:30:58;;;;;;;1.13;0.80;;;;;;;;;;4990732;28;20271;-75
2022/07/13 14:33:25;;;;;;;0.80;0.77;;;;;;;;;;4992857;28;20670;-75
2022/07/13 14:35:51;;;;;;;0.73;0.70;;;;;;;;;;5004410;28;20573;-75
2022/07/13 14:38:18;;;;;;;1.65;0.90;;;;;;;;;;4990449;28;20195;-75
2022/07/13 14:40:45;;;;;;;2.80;1.20;;;;;;;;;;4992931;28;20183;-74
2022/07/13 14:43:11;;;;;;;1.02;0.93;;;;;;;;;;5006821;28;20631;-75
2022/07/13 14:45:38;;;;;;;1.20;0.82;;;;;;;;;;5008649;28;20243;-75
2022/07/13 14:48:05;;;;;;;0.70;0.70;;;;;;;;;;5005205;28;20180;-75
2022/07/13 14:50:32;;;;;;;1.67;0.90;;;;;;;;;;5004721;28;20192;-75
2022/07/13 14:52:59;;;;;;;1.63;0.90;;;;;;;;;;4989245;28;20198;-75
2022/07/13 14:55:26;;;;;;;4.05;1.17;;;;;;;;;;5006005;28;20212;-75
2022/07/13 14:57:52;;;;;;;7.32;1.02;;;;;;;;;;5006149;28;20246;-75